Fulton County Airport Brown Field
KFTY : rendu visible

Aérodrome :











RETROUVEZ-NOUS SUR...

 
LOGIN :

S'inscrire | Disclaimer

   EN    FR    IT 

 









Légende :    VFR   VFR Marginal   IFR   IFR Intensif   IFR Très Intensif
Visi : 
Plafond : 
>= 8 km
>= 3000ft
5 à 8 km
1000 à 3000 ft
1500m à 5 km
500 à 1000 ft
800 à 1500m
200 à 500 ft
< 800m
< 200 ft
Symboles :   Orages  Brouillard  Fortes neiges  Fortes précipitations  Vent > 20 kt






- Altitude de l'aérodrome : 841 ft


KFTY - Fulton County Brown Field

DERNIER METAR :
  • 250553Z 16009KT 8SM -RA BKN006 OVC010 21/19 A2989 RMK AO2 RAB11 SLP115 P0004 60009 T02110194 10211 20194 58007

METARs EXPIRÉS :
  • 250453Z 13009KT 7SM OVC007 21/19 A2990 RMK AO2 RAB40E50 CIG 005V010 SLP117 P0000 T02060189 402060167
  • 250353Z 14008KT 10SM OVC009 21/18 A2991 RMK AO2 RAE37 CIG 007V011 SLP121 P0000 T02060183

TAF KFTY
Valide du 25 à 06h jusqu'au 26 à 06h UTC


250540Z 2506/2606 13009KT 5SM -RA BR SCT003 OVC007
TEMPO 2506/2510 3SM -RADZ OVC003
FM251000 15006KT 4SM -DZ BR VCSH BKN003 OVC005
FM251400 19005KT P6SM VCSH SCT005 OVC007
FM251600 23007KT P6SM VCSH BKN012 BKN025
FM260000 VRB03KT P6SM SCT025
FM260300 00000KT P6SM FEW080
FIR KZTL / Amérique du Nord



MET'MAP, la Météo Aéronautique d'un coup d'oeil ! - Copyright ORBIFLY Décembre 2007 - Disclaimer

ORBIFLY MET'MAP TEAM :

Programmation & Développement : Alexandra Zaïnal
Sur une idée originale de : Baudouin d'Aumeries
Assistance à la programmation : Marc-Olivier Méhu
Soutien technique & logistique : Manuel Goepfert

Contact : metmap@orbifly.com




SOURCES & CREDITS :

   NOAA       Earth
Advisory